Terminal Aerodrome Forecast
Issued by NWS

Home | Current Version | Previous Version | Text Only | Print | Product List | Glossary On
Versions: 1 2 3 4 5 6 7 8 9 10 11 12 13
000
FTAK31 PAJN 311141
TAFAWG
TAF
PAWG 311141Z 3112/0112 00000KT P6SM VCSH BKN070 OVC100
     FM311800 35007KT P6SM VCSH SCT045 BKN080
     FM010100 VRB04KT P6SM SCT080
      AMD LTD TO CLD VIS AND WIND TIL 311500=

USA.gov is the U.S. government's official web portal to all federal, state and local government web resources and services.